createdAt,value
2023-10-28T00:01:03.656Z,96530.27
2023-10-28T00:03:31.383Z,96532.48
2023-10-28T00:05:58.946Z,96517.36
2023-10-28T00:08:26.519Z,96508.25
2023-10-28T00:10:53.993Z,96515.55
2023-10-28T00:13:21.484Z,96507.91
2023-10-28T00:15:49.094Z,96507.27
2023-10-28T00:18:17.017Z,96509.80
2023-10-28T00:20:45.658Z,96504.27
2023-10-28T00:23:15.710Z,96488.40
2023-10-28T00:25:44.047Z,96482.27
2023-10-28T00:28:11.750Z,96478.18
2023-10-28T00:30:40.501Z,96481.27
2023-10-28T00:33:08.149Z,96467.58
2023-10-28T00:35:37.741Z,96464.83
2023-10-28T00:38:05.418Z,96471.83
2023-10-28T00:40:33.138Z,96468.70
2023-10-28T00:43:01.010Z,96465.72
2023-10-28T00:45:28.922Z,96458.48
2023-10-28T00:47:57.824Z,96449.77
2023-10-28T00:50:25.558Z,96448.35
2023-10-28T00:52:55.549Z,96450.97
2023-10-28T00:55:24.585Z,96444.30
2023-10-28T00:57:52.608Z,96436.24
2023-10-28T01:00:22.392Z,96433.36
2023-10-28T01:02:50.643Z,96425.30
2023-10-28T01:05:18.584Z,96425.90
2023-10-28T01:07:50.543Z,96424.33
2023-10-28T01:10:32.167Z,96429.05
2023-10-28T01:13:05.560Z,96425.44
2023-10-28T01:15:33.352Z,96423.66
2023-10-28T01:18:00.982Z,96422.05
2023-10-28T01:20:28.655Z,96415.19
2023-10-28T01:22:56.193Z,96420.04
2023-10-28T01:25:24.139Z,96421.21
2023-10-28T01:27:51.874Z,96415.42
2023-10-28T01:30:19.746Z,96409.41
2023-10-28T01:32:47.468Z,96404.59
2023-10-28T01:35:15.465Z,96397.23
2023-10-28T01:37:43.918Z,96399.56
2023-10-28T01:40:15.207Z,96399.62
2023-10-28T01:42:45.595Z,96396.95
2023-10-28T01:45:16.787Z,96391.27
2023-10-28T01:47:44.700Z,96389.87
2023-10-28T01:50:12.941Z,96381.72
2023-10-28T01:52:42.008Z,96386.70
2023-10-28T01:55:11.093Z,96384.05
2023-10-28T01:57:38.665Z,96375.98
2023-10-28T02:00:09.171Z,96367.23
2023-10-28T02:02:41.807Z,96364.71
2023-10-28T02:05:10.047Z,96358.41
2023-10-28T02:07:38.104Z,96352.31
2023-10-28T02:10:06.572Z,96363.40
2023-10-28T02:12:36.295Z,96353.97
2023-10-28T02:15:05.350Z,96367.84
2023-10-28T02:17:32.945Z,96367.84
2023-10-28T02:20:00.558Z,96377.06
2023-10-28T02:22:28.095Z,96382.73
2023-10-28T02:24:55.595Z,96401.09
2023-10-28T02:27:23.059Z,96413.33
2023-10-28T02:29:50.805Z,96400.63
2023-10-28T02:32:18.956Z,96401.23
2023-10-28T02:34:46.771Z,96408.61
2023-10-28T02:37:15.710Z,96410.64
2023-10-28T02:39:43.523Z,96399.42
2023-10-28T02:42:11.047Z,96400.45
2023-10-28T02:44:38.561Z,96397.54
2023-10-28T02:47:06.213Z,96388.94
2023-10-28T02:49:37.273Z,96383.27
2023-10-28T02:52:06.348Z,96377.66
2023-10-28T02:54:35.434Z,96381.21
2023-10-28T02:57:02.989Z,96370.13
2023-10-28T02:59:30.996Z,96372.58
2023-10-28T03:01:59.087Z,96363.66
2023-10-28T03:04:26.858Z,96353.50
2023-10-28T03:06:54.448Z,96360.25
2023-10-28T03:09:22.098Z,96352.12
2023-10-28T03:11:49.666Z,96351.12
2023-10-28T03:14:17.291Z,96345.26
2023-10-28T03:16:47.409Z,96350.84
2023-10-28T03:19:15.036Z,96345.20
2023-10-28T03:21:42.794Z,96335.81
2023-10-28T03:24:10.414Z,96325.58
2023-10-28T03:26:38.180Z,96317.93
2023-10-28T03:29:07.784Z,96325.27
2023-10-28T03:31:35.633Z,96328.46
2023-10-28T03:34:03.390Z,96327.90
2023-10-28T03:36:31.208Z,96315.15
2023-10-28T03:38:59.857Z,96310.71
2023-10-28T03:41:27.348Z,96298.39
2023-10-28T03:43:54.913Z,96295.58
2023-10-28T03:46:23.062Z,96295.19
2023-10-28T03:48:51.681Z,96290.36
2023-10-28T03:51:19.270Z,96296.14
2023-10-28T03:53:46.750Z,96281.00
2023-10-28T03:56:15.785Z,96272.89
2023-10-28T03:58:43.469Z,96272.42
2023-10-28T04:01:11.553Z,96270.01
2023-10-28T04:03:39.116Z,96265.10
2023-10-28T04:06:07.973Z,96255.33
2023-10-28T04:08:35.644Z,96247.67
2023-10-28T04:11:05.012Z,96238.72
2023-10-28T04:13:33.650Z,96235.86
2023-10-28T04:16:01.365Z,96229.13
2023-10-28T04:18:28.881Z,96222.00
2023-10-28T04:20:57.290Z,96216.94
2023-10-28T04:23:24.842Z,96206.90
2023-10-28T04:25:53.946Z,96229.20
2023-10-28T04:28:21.592Z,96217.84
2023-10-28T04:31:01.407Z,96236.64
2023-10-28T04:33:29.356Z,96205.81
2023-10-28T04:35:57.052Z,96219.98
2023-10-28T04:38:24.890Z,96229.83
2023-10-28T04:40:52.506Z,96232.60
2023-10-28T04:43:21.174Z,96224.66
2023-10-28T04:45:49.694Z,96226.45
2023-10-28T04:48:17.460Z,96225.30
2023-10-28T04:50:50.040Z,96220.22
2023-10-28T04:53:17.829Z,96223.48
2023-10-28T04:55:45.509Z,96248.05
2023-10-28T04:58:13.460Z,96242.52
2023-10-28T05:00:41.688Z,96226.17
2023-10-28T05:03:09.462Z,96242.35
2023-10-28T05:05:38.729Z,96254.19
2023-10-28T05:08:06.523Z,96254.70
2023-10-28T05:10:34.263Z,96275.17
2023-10-28T05:13:01.833Z,96289.92
2023-10-28T05:15:30.281Z,96279.35
2023-10-28T12:29:20.351Z,97673.86
2023-10-28T12:31:48.055Z,97693.34
2023-10-28T12:34:15.677Z,97692.23
2023-10-28T12:36:44.536Z,97706.02
2023-10-28T12:39:12.055Z,97716.27
2023-10-28T12:41:40.121Z,97717.06
2023-10-28T12:44:07.919Z,97721.05
2023-10-28T12:46:35.736Z,97719.06
2023-10-28T12:49:03.227Z,97718.81
2023-10-28T12:51:31.956Z,97724.45
2023-10-28T12:54:02.005Z,97727.47
2023-10-28T12:56:29.581Z,97728.30
2023-10-28T12:58:57.536Z,97740.83
2023-10-28T13:01:28.427Z,97755.33
2023-10-28T13:03:58.814Z,97763.95
2023-10-28T13:06:27.106Z,97765.76
2023-10-28T13:08:54.601Z,97775.42
2023-10-28T13:11:22.192Z,97779.80
2023-10-28T13:13:50.046Z,97786.19
2023-10-28T13:16:17.604Z,97791.44
2023-10-28T13:18:45.296Z,97795.02
2023-10-28T13:21:14.500Z,97799.32
2023-10-28T13:23:43.108Z,97808.08
2023-10-28T13:26:14.112Z,97819.93
2023-10-28T13:28:43.826Z,97819.91
2023-10-28T13:31:11.879Z,97827.33
2023-10-28T13:33:40.409Z,97839.05
2023-10-28T13:36:09.436Z,97836.16
2023-10-28T13:38:36.967Z,97842.69
2023-10-28T13:41:05.043Z,97846.23
2023-10-28T13:43:33.117Z,97858.16
2023-10-28T13:46:01.551Z,97863.75
2023-10-28T13:48:29.690Z,97869.54
2023-10-28T13:50:59.733Z,97873.36
2023-10-28T13:53:27.508Z,97873.73
2023-10-28T13:56:01.556Z,97880.15
2023-10-28T13:58:30.052Z,97889.25
2023-10-28T14:01:08.733Z,97894.45
2023-10-28T14:03:37.075Z,97902.35
2023-10-28T14:06:06.275Z,97908.94
2023-10-28T14:08:34.080Z,97914.23
2023-10-28T14:11:01.703Z,97916.77
2023-10-28T14:13:31.189Z,97925.14
2023-10-28T14:15:58.744Z,97928.60
2023-10-28T14:18:27.079Z,97937.17
2023-10-28T14:20:54.712Z,97936.14
2023-10-28T14:23:23.901Z,97937.14
2023-10-28T14:25:52.409Z,97937.67
2023-10-28T14:28:19.896Z,97948.00
2023-10-28T14:30:47.615Z,97944.46
2023-10-28T14:33:16.599Z,97954.73
2023-10-28T14:35:44.534Z,97961.30
2023-10-28T14:38:12.036Z,97971.64
2023-10-28T14:40:39.703Z,97979.34
2023-10-28T14:43:07.234Z,97982.73
2023-10-28T14:45:34.831Z,97992.96
2023-10-28T14:48:02.394Z,97993.27
2023-10-28T14:50:30.082Z,98001.25
2023-10-28T14:52:57.692Z,97998.23
2023-10-28T14:55:25.170Z,97999.42
2023-10-28T14:58:07.338Z,98006.09
2023-10-28T15:00:42.061Z,98010.33
2023-10-28T15:03:09.657Z,98013.23
2023-10-28T15:05:43.242Z,98014.70
2023-10-28T15:08:14.111Z,98017.20
2023-10-28T15:10:41.750Z,98021.79
2023-10-28T15:13:09.265Z,98032.10
2023-10-28T15:15:38.163Z,98039.48
2023-10-28T15:18:06.473Z,98040.86
2023-10-28T15:20:34.590Z,98044.48
2023-10-28T15:23:02.283Z,98046.73
2023-10-28T15:25:31.597Z,98053.25
2023-10-28T15:27:59.297Z,98047.91
2023-10-28T15:30:27.130Z,98058.23
2023-10-28T15:32:54.947Z,98059.33
2023-10-28T15:35:22.644Z,98064.58
2023-10-28T15:37:51.812Z,98065.96
2023-10-28T15:40:20.402Z,98072.01
2023-10-28T15:42:48.592Z,98075.89
2023-10-28T15:45:16.252Z,98080.40
2023-10-28T15:47:43.942Z,98084.11
2023-10-28T15:50:11.840Z,98088.77
2023-10-28T15:52:39.401Z,98089.39
2023-10-28T15:55:09.600Z,98090.39
2023-10-28T15:57:37.195Z,98102.49
2023-10-28T16:00:07.321Z,98106.14
2023-10-28T16:02:35.177Z,98115.54
2023-10-28T16:05:03.233Z,98119.58
2023-10-28T16:07:30.925Z,98119.04
2023-10-28T16:09:59.170Z,98118.48
2023-10-28T16:12:26.895Z,98120.50
2023-10-28T16:14:54.545Z,98125.77
2023-10-28T16:17:22.091Z,98130.20
2023-10-28T16:19:51.044Z,98130.90
2023-10-28T16:22:18.784Z,98137.70
2023-10-28T16:24:46.572Z,98140.09
2023-10-28T16:27:15.868Z,98145.73
2023-10-28T16:29:44.116Z,98153.81
2023-10-28T16:32:11.714Z,98157.15
2023-10-28T16:34:39.399Z,98165.36
2023-10-28T16:37:06.897Z,98168.84
2023-10-28T16:39:34.541Z,98171.46
2023-10-28T16:42:02.197Z,98174.56
2023-10-28T16:44:29.773Z,98174.05
2023-10-28T16:46:57.308Z,98176.06
2023-10-28T16:49:25.160Z,98181.95
2023-10-28T16:51:52.665Z,98188.22
2023-10-28T16:54:20.224Z,98193.27
2023-10-28T16:56:49.352Z,98200.63
2023-10-28T16:59:17.364Z,98202.88
2023-10-28T17:01:46.885Z,98209.39
2023-10-28T17:04:14.775Z,98213.81
2023-10-28T17:06:42.479Z,98218.15
2023-10-28T17:09:09.972Z,98223.09
2023-10-28T17:11:37.645Z,98228.76
2023-10-28T17:14:05.179Z,98231.53
2023-10-28T17:16:32.686Z,98232.16
2023-10-28T17:19:03.755Z,98234.71
2023-10-28T17:21:32.066Z,98237.35
2023-10-28T17:23:59.761Z,98237.96
2023-10-28T17:26:28.402Z,98239.45
2023-10-28T17:28:56.271Z,98240.52
2023-10-28T17:31:23.835Z,98240.59
2023-10-28T17:33:51.630Z,98246.17
2023-10-28T17:36:19.298Z,98251.90
2023-10-28T17:38:47.423Z,98248.73
2023-10-28T17:41:16.425Z,98254.15
2023-10-28T17:43:51.050Z,98252.37
2023-10-28T17:46:18.645Z,98260.20
2023-10-28T17:48:46.304Z,98266.40
2023-10-28T17:51:15.008Z,98270.20
2023-10-28T17:53:44.030Z,98271.89
2023-10-28T17:56:11.691Z,98280.95
2023-10-28T17:58:41.348Z,98278.40
2023-10-28T18:01:08.961Z,98280.35
2023-10-28T18:03:36.650Z,98278.87
2023-10-28T18:06:06.222Z,98280.27
2023-10-28T18:08:35.204Z,98285.06
2023-10-28T18:11:02.876Z,98281.90
2023-10-28T18:13:30.465Z,98289.10
2023-10-28T18:15:58.051Z,98293.75
2023-10-28T18:18:27.708Z,98297.31
2023-10-28T18:20:55.248Z,98302.42
2023-10-28T18:23:28.635Z,98293.98
2023-10-28T18:25:56.609Z,98304.98
2023-10-28T18:28:24.523Z,98306.30
2023-10-28T18:30:52.174Z,98313.66
2023-10-28T18:33:19.818Z,98316.28
2023-10-28T18:35:48.763Z,98319.55
2023-10-28T18:38:17.561Z,98324.27
2023-10-28T18:40:45.402Z,98327.36
2023-10-28T18:43:13.710Z,98330.63
2023-10-28T18:45:41.237Z,98334.81
2023-10-28T18:48:10.046Z,98337.13
2023-10-28T18:50:40.681Z,98341.70
2023-10-28T18:53:08.585Z,98342.77
2023-10-28T18:55:38.554Z,98343.33
2023-10-28T18:58:06.366Z,98348.81
2023-10-28T19:00:34.061Z,98349.60
2023-10-28T19:03:01.705Z,98341.70
2023-10-28T19:05:29.381Z,98347.11
2023-10-28T19:07:56.974Z,98351.61
2023-10-28T19:10:24.541Z,98354.31
2023-10-28T19:12:53.141Z,98359.48
2023-10-28T19:15:20.698Z,98359.49
2023-10-28T19:17:48.474Z,98360.59
2023-10-28T19:20:16.315Z,98361.05
2023-10-28T19:22:44.693Z,98356.08
2023-10-28T19:25:16.042Z,98356.93
2023-10-28T19:27:45.931Z,98354.59
2023-10-28T19:30:13.977Z,98358.56
2023-10-28T19:32:41.643Z,98363.67
2023-10-28T19:35:12.984Z,98367.56
2023-10-28T19:37:41.885Z,98371.95
2023-10-28T19:40:09.979Z,98382.95
2023-10-28T19:42:37.718Z,98383.00
2023-10-28T19:45:05.920Z,98381.08
2023-10-28T19:47:33.718Z,98394.64
2023-10-28T19:50:01.700Z,98400.28
2023-10-28T19:52:29.263Z,98401.59
2023-10-28T19:54:59.101Z,98403.52
2023-10-28T19:57:28.061Z,98405.99
2023-10-28T19:59:55.593Z,98405.47
2023-10-28T20:02:23.494Z,98401.92
2023-10-28T20:04:51.293Z,98410.14
2023-10-28T20:07:18.997Z,98418.73
2023-10-28T20:09:47.870Z,98426.08
2023-10-28T20:12:15.496Z,98422.98
2023-10-28T20:14:44.513Z,98416.02
2023-10-28T20:17:13.553Z,98408.68
2023-10-28T20:19:41.205Z,98409.38
2023-10-28T20:22:10.598Z,98414.70
2023-10-28T20:24:38.210Z,98418.95
2023-10-28T20:27:06.141Z,98425.67
2023-10-28T20:29:40.097Z,98431.55
2023-10-28T20:32:08.148Z,98438.70
2023-10-28T20:34:35.901Z,98446.27
2023-10-28T20:37:03.599Z,98448.50
2023-10-28T20:39:31.308Z,98451.52
2023-10-28T20:41:58.941Z,98454.23
2023-10-28T20:44:26.461Z,98453.52
2023-10-28T20:46:54.714Z,98457.02
2023-10-28T20:49:23.862Z,98458.23
2023-10-28T20:51:51.688Z,98464.14
2023-10-28T20:54:20.170Z,98471.15
2023-10-28T20:56:47.778Z,98474.34
2023-10-28T20:59:15.472Z,98480.36
2023-10-28T21:01:43.201Z,98482.23
2023-10-28T21:04:10.840Z,98484.73
2023-10-28T21:06:39.213Z,98484.19
2023-10-28T21:09:06.778Z,98485.25
2023-10-28T21:11:34.351Z,98483.17
2023-10-28T21:14:03.299Z,98484.42
2023-10-28T21:16:36.947Z,98486.13
2023-10-28T21:19:05.026Z,98489.90
2023-10-28T21:21:33.668Z,98492.95
2023-10-28T21:24:02.558Z,98488.90
2023-10-28T21:26:30.429Z,98486.07
2023-10-28T21:28:58.273Z,98483.52
2023-10-28T21:31:25.761Z,98483.73
2023-10-28T21:33:53.338Z,98480.86
2023-10-28T21:36:21.097Z,98482.35
2023-10-28T21:38:48.786Z,98484.61
2023-10-28T21:41:16.367Z,98495.73
2023-10-28T21:43:43.977Z,98506.56
2023-10-28T21:46:11.597Z,98511.23
2023-10-28T21:48:39.233Z,98519.13
2023-10-28T21:51:07.493Z,98516.77
2023-10-28T21:53:35.180Z,98518.76
2023-10-28T21:56:03.343Z,98520.83
2023-10-28T21:58:30.937Z,98519.71
2023-10-28T22:00:58.469Z,98523.00
2023-10-28T22:03:26.614Z,98529.66
2023-10-28T22:05:54.420Z,98527.48
2023-10-28T22:08:21.971Z,98532.73
2023-10-28T22:10:50.950Z,98531.16
2023-10-28T22:13:18.736Z,98532.41
2023-10-28T22:15:46.424Z,98538.98
2023-10-28T22:18:17.077Z,98549.25
2023-10-28T22:20:45.962Z,98548.63
2023-10-28T22:23:13.688Z,98548.66
2023-10-28T22:25:41.438Z,98549.98
2023-10-28T22:28:15.285Z,98548.44
2023-10-28T22:30:46.498Z,98549.95
2023-10-28T22:33:15.030Z,98548.73
2023-10-28T22:35:42.987Z,98549.53
2023-10-28T22:38:13.377Z,98542.66
2023-10-28T22:40:43.612Z,98543.63
2023-10-28T22:43:11.533Z,98553.04
2023-10-28T22:45:39.065Z,98564.43
2023-10-28T22:48:06.782Z,98568.46
2023-10-28T22:50:34.745Z,98570.02
2023-10-28T22:53:02.908Z,98576.23
2023-10-28T22:55:30.528Z,98579.20
2023-10-28T22:57:58.470Z,98582.25
2023-10-28T23:00:28.249Z,98583.75
2023-10-28T23:02:55.964Z,98585.14
2023-10-28T23:05:23.635Z,98583.73
2023-10-28T23:07:54.132Z,98586.42
2023-10-28T23:10:21.620Z,98586.12
2023-10-28T23:12:49.086Z,98592.45
2023-10-28T23:15:16.649Z,98580.89
2023-10-28T23:17:44.438Z,98583.80
2023-10-28T23:20:14.497Z,98588.05
2023-10-28T23:22:42.214Z,98587.95
2023-10-28T23:25:10.730Z,98592.31
2023-10-28T23:27:38.353Z,98596.51
2023-10-28T23:30:07.451Z,98604.58
2023-10-28T23:32:35.067Z,98605.25
2023-10-28T23:35:02.716Z,98610.94
2023-10-28T23:37:34.352Z,98608.56
2023-10-28T23:40:06.485Z,98603.98
2023-10-28T23:42:34.429Z,98609.55
2023-10-28T23:45:02.540Z,98611.24
2023-10-28T23:47:30.156Z,98611.51
2023-10-28T23:49:57.865Z,98617.99
2023-10-28T23:52:25.379Z,98618.64
2023-10-28T23:54:52.989Z,98624.85
2023-10-28T23:57:20.467Z,98622.83
2023-10-28T23:59:48.611Z,98631.91
